Hotchkiss, CO

12:30 PM MDT on September 21, 2014 (GMT -0600)
Rogers Mesa CO | Change Station
CLOSE
Current Station
Personal Weather Station
Location: Rogers Mesa, CO
Elevation: 5794 ft
Nearby Weather Stations
Active Advisory: Special Statement Active Notice: Public Information Statement

Elev 5794 ft 38.81 °N, 107.77 °W | Updated 27 seconds ago

Mostly Cloudy
Mostly Cloudy
71.0 °F
Feels Like 75 °F
N
5.0
Wind Variable Wind from East
Gusts 6.0 mph

Today
High -- | Low -- °F
--% Chance of Precip.
Yesterday
High -- | Low -- °F
Precip. -- in
6:57 AM 7:09 PM
Waning Crescent, 6% visible
Pressure 30.29 in
Visibility 10.0 miles
Clouds Clear
Heat Index 75 °F
Dew Point 59 °F
Humidity 65%
Rainfall 0.40 in
Snow Depth 0 in , 0 in , 0 in
UV 8 out of 12
Pollen 5.10 out of 12
Air Quality Not available.
Flu Activity Not available.
METAR KAJZ 211815Z AUTO 05007KT 10SM RA CLR 23/14 A3029 RMK AO2 T02340141

More Conditions Fewer Conditions

Pressure 30.29 in
Visibility 10.0 miles
Clouds Clear
Heat Index 75 °F
Dew Point 59 °F
Humidity 65%
Rainfall 0.40 in
Snow Depth 0 in , 0 in , 0 in
UV 8 out of 12
Pollen 5.10 out of 12
Air Quality Not available.
Flu Activity Not available.
METAR KAJZ 211815Z AUTO 05007KT 10SM RA CLR 23/14 A3029 RMK AO2 T02340141

More Conditions Fewer Conditions

10-Day Weather Forecast

Almanac

Astronomy

Sep. 21, 2014 Rise Set
Actual Time 6:57 AM MDT 7:09 PM MDT
Civil Twilight 6:31 AM MDT 7:36 PM MDT
Nautical Twilight 6:00 AM MDT 8:07 PM MDT
Astronomical Twilight 5:28 AM MDT 8:38 PM MDT
Moon 4:35 AM MDT 5:46 PM MDT
Length of Visible Light 13h 04m
Length of Day
12h 11m
Tomorrow will be 2m 30s shorter.
Waning Crescent, 6% of the Moon is Illuminated
Today
Waning Crescent
Sep 24
New
Oct 1
First Quarter
Oct 8
Full
Oct 15
Last Quarter

Today's Extremes

State Highs State Lows

Community

WunderPhotos

Upload Photos

1,755,212 photos uploaded!

WunderBlogs® & News

Nearby

Snow Depth

Station Depth Elevation
Grayback 0 in 11620 ft
Whiskey Creek 0 in 10220 ft
North Lost Trail 0 in 9200 ft
Niwot 0 in 9910 ft
Scotch Creek 0 in 9100 ft

Earthquake Activity

City Distance Mag. Time & Date
No recent earthquake activity has been reported nearby.
Minimum magnitude displayed is 2.5.

Coastal Water Temperatures

Place Temperature
No Stations Reporting

Nearby Weather Stations